Time;durP1;ratioP1;P1;durP2;ratioP2;P2;SDS_P1;SDS_P2;PMS_P1;PMS_P2;Temp;Humidity;BMP_temperature;BMP_pressure;BME280_temperature;BME280_humidity;BME280_pressure;Samples;Min_cycle;Max_cycle;Signal;HPM_P1;HPM_P2
2023/02/04 00:00:12;;;;;;;2.90;1.60;;;4.20;99.90;;;;;;5087407;28;20245;-64
2023/02/04 00:02:40;;;;;;;3.80;1.67;;;4.10;99.90;;;;;;5094720;28;20671;-65
2023/02/04 00:05:08;;;;;;;2.17;1.10;;;4.20;99.90;;;;;;5098765;28;20235;-66
2023/02/04 00:07:35;;;;;;;1.13;0.90;;;4.20;99.90;;;;;;5067707;28;20192;-66
2023/02/04 00:10:03;;;;;;;2.13;0.97;;;4.20;99.90;;;;;;5093613;28;20247;-66
2023/02/04 00:12:32;;;;;;;1.67;0.80;;;4.20;99.90;;;;;;5066892;28;20201;-64
2023/02/04 00:14:59;;;;;;;1.53;1.10;;;4.20;99.90;;;;;;5093226;28;20200;-65
2023/02/04 00:17:27;;;;;;;1.63;0.87;;;4.20;99.90;;;;;;5094053;28;20659;-65
2023/02/04 00:19:54;;;;;;;1.23;0.80;;;4.20;99.90;;;;;;5091945;28;20196;-64
2023/02/04 00:22:21;;;;;;;1.53;0.93;;;4.20;99.90;;;;;;5097350;28;20264;-65
2023/02/04 00:24:49;;;;;;;0.67;0.60;;;4.20;99.90;;;;;;5100642;28;20192;-66
2023/02/04 00:27:16;;;;;;;4.60;0.87;;;4.20;99.60;;;;;;5089197;28;20568;-65
2023/02/04 00:29:45;;;;;;;3.23;0.80;;;4.20;99.60;;;;;;5094936;28;20215;-65
2023/02/04 00:32:15;;;;;;;0.60;0.60;;;4.20;99.60;;;;;;5095682;28;20195;-64
2023/02/04 00:34:45;;;;;;;1.20;0.70;;;4.20;99.20;;;;;;5085394;28;20197;-65
2023/02/04 00:37:12;;;;;;;0.90;0.90;;;4.20;99.20;;;;;;5074059;28;20203;-65
2023/02/04 00:39:40;;;;;;;1.10;0.70;;;4.20;99.30;;;;;;5105234;28;20314;-65
2023/02/04 00:42:07;;;;;;;1.27;0.60;;;4.20;99.60;;;;;;5063010;28;20287;-65
2023/02/04 00:44:36;;;;;;;1.07;0.70;;;4.20;99.80;;;;;;5084919;28;20200;-64
2023/02/04 00:47:05;;;;;;;2.63;0.90;;;4.20;99.90;;;;;;5066914;28;20635;-64
2023/02/04 00:49:33;;;;;;;3.30;0.70;;;4.40;99.90;;;;;;5072194;28;20212;-64
2023/02/04 00:52:01;;;;;;;1.03;0.60;;;4.20;99.60;;;;;;5091444;28;20196;-64
2023/02/04 00:54:28;;;;;;;0.70;0.70;;;4.20;99.50;;;;;;5092870;28;20586;-64
2023/02/04 00:56:56;;;;;;;1.93;0.90;;;4.20;98.80;;;;;;5106309;28;20219;-64
2023/02/04 00:59:23;;;;;;;5.10;0.60;;;4.10;98.00;;;;;;5097273;28;20199;-64
2023/02/04 01:01:51;;;;;;;1.80;0.60;;;4.10;97.60;;;;;;5093201;28;20551;-65
2023/02/04 01:04:20;;;;;;;0.97;0.70;;;4.10;97.60;;;;;;5066294;28;20235;-65
2023/02/04 01:06:47;;;;;;;0.70;0.60;;;4.10;97.30;;;;;;5073990;28;20667;-65
2023/02/04 01:09:16;;;;;;;0.50;0.50;;;4.10;97.00;;;;;;5090116;28;20200;-65
2023/02/04 01:11:43;;;;;;;0.77;0.60;;;4.10;97.00;;;;;;5097728;28;20193;-65
2023/02/04 01:14:11;;;;;;;1.30;0.70;;;4.10;96.70;;;;;;5094874;28;20196;-65
2023/02/04 01:16:39;;;;;;;1.63;0.57;;;4.10;96.20;;;;;;5093526;28;20268;-66
2023/02/04 01:19:07;;;;;;;0.70;0.57;;;4.10;95.30;;;;;;5091259;28;20194;-65
2023/02/04 01:21:35;;;;;;;1.03;0.70;;;4.10;94.60;;;;;;5085629;28;20196;-66
2023/02/04 01:24:03;;;;;;;0.40;0.40;;;4.10;94.30;;;;;;5094717;28;20295;-65
2023/02/04 01:26:30;;;;;;;0.37;0.37;;;4.00;93.60;;;;;;5099095;28;20209;-65
2023/02/04 01:28:57;;;;;;;0.60;0.60;;;4.00;93.60;;;;;;5097188;28;20579;-66
2023/02/04 01:31:25;;;;;;;0.60;0.40;;;4.00;94.00;;;;;;5073977;28;20196;-66
2023/02/04 01:33:52;;;;;;;0.50;0.50;;;4.10;93.90;;;;;;5092669;28;20651;-65
2023/02/04 01:36:20;;;;;;;0.50;0.50;;;4.10;93.80;;;;;;5063792;28;20200;-65
2023/02/04 01:38:49;;;;;;;1.13;0.70;;;4.10;94.00;;;;;;5104436;28;20651;-65
2023/02/04 01:41:17;;;;;;;3.80;0.70;;;4.20;94.10;;;;;;5103029;28;20187;-66
2023/02/04 01:43:44;;;;;;;0.40;0.40;;;4.20;94.00;;;;;;5064533;28;20260;-64
2023/02/04 01:46:12;;;;;;;0.90;0.50;;;4.20;94.10;;;;;;5075694;28;20291;-66
2023/02/04 01:48:39;;;;;;;0.60;0.60;;;4.20;94.40;;;;;;5106754;28;20284;-66
2023/02/04 01:51:10;;;;;;;1.67;0.47;;;4.30;94.60;;;;;;5091330;28;20191;-66
2023/02/04 01:53:39;;;;;;;1.53;0.80;;;4.30;94.60;;;;;;5098033;28;20192;-66
2023/02/04 01:56:17;;;;;;;0.53;0.53;;;4.40;94.60;;;;;;5095229;28;20198;-65
2023/02/04 01:58:45;;;;;;;0.40;0.30;;;4.40;94.50;;;;;;5077442;28;20205;-66
2023/02/04 02:01:36;;;;;;;0.63;0.60;;;4.40;94.20;;;;;;5069045;28;20227;-65
2023/02/04 02:04:04;;;;;;;0.47;0.40;;;4.50;94.20;;;;;;5062445;28;20234;-66
2023/02/04 02:06:31;;;;;;;1.20;0.40;;;4.50;94.10;;;;;;5103466;28;20755;-66
2023/02/04 02:08:59;;;;;;;0.63;0.40;;;4.50;93.80;;;;;;5099848;28;20677;-66
2023/02/04 02:11:28;;;;;;;0.30;0.30;;;4.60;94.00;;;;;;5073058;28;20203;-66
2023/02/04 02:13:55;;;;;;;0.40;0.40;;;4.60;94.00;;;;;;5096806;28;20202;-65
2023/02/04 02:16:23;;;;;;;1.27;0.40;;;4.60;93.70;;;;;;5090667;28;20201;-65
2023/02/04 02:18:52;;;;;;;4.13;0.40;;;4.60;93.30;;;;;;5092178;28;20267;-64
2023/02/04 02:21:24;;;;;;;1.07;0.47;;;4.50;93.00;;;;;;5067771;28;20671;-65
2023/02/04 02:23:56;;;;;;;0.60;0.60;;;4.60;93.10;;;;;;5089320;28;20213;-66
2023/02/04 02:26:25;;;;;;;2.93;0.40;;;4.60;93.20;;;;;;5065774;28;20201;-66
2023/02/04 02:28:52;;;;;;;0.40;0.40;;;4.60;93.20;;;;;;5097488;28;20747;-66
2023/02/04 02:31:24;;;;;;;1.07;0.70;;;4.70;93.20;;;;;;5072329;28;20219;-66
2023/02/04 02:33:51;;;;;;;2.07;0.60;;;4.70;93.00;;;;;;5070228;28;20228;-66
2023/02/04 02:36:18;;;;;;;0.70;0.50;;;4.70;93.10;;;;;;5097121;28;20207;-66
2023/02/04 02:38:51;;;;;;;0.43;0.40;;;4.70;93.10;;;;;;5065301;28;20204;-66
2023/02/04 02:41:19;;;;;;;0.73;0.67;;;4.70;93.20;;;;;;5100835;28;20245;-66
2023/02/04 02:43:46;;;;;;;2.60;1.07;;;4.70;93.10;;;;;;5097376;28;20639;-66
2023/02/04 02:46:13;;;;;;;6.63;2.00;;;4.70;93.50;;;;;;5086441;28;20199;-65
2023/02/04 02:48:41;;;;;;;8.10;2.23;;;4.60;95.40;;;;;;5097416;28;20567;-65
2023/02/04 02:51:08;;;;;;;4.17;1.90;;;4.50;96.90;;;;;;5097017;28;20567;-64
2023/02/04 02:53:35;;;;;;;3.90;1.10;;;4.50;98.30;;;;;;5095720;28;20196;-66
2023/02/04 02:56:04;;;;;;;4.80;1.20;;;4.40;99.80;;;;;;5070447;28;20211;-65
2023/02/04 02:58:36;;;;;;;2.83;1.20;;;4.30;99.90;;;;;;5074517;28;20208;-65
2023/02/04 03:01:06;;;;;;;1.87;1.43;;;4.30;99.90;;;;;;5058682;28;20312;-64
2023/02/04 03:03:38;;;;;;;5.67;2.10;;;4.20;99.90;;;;;;5067119;28;20212;-65
2023/02/04 03:06:10;;;;;;;10.97;3.43;;;4.20;99.90;;;;;;5091112;28;20199;-65
2023/02/04 03:08:39;;;;;;;10.07;3.60;;;4.20;99.90;;;;;;5091009;28;20199;-65
2023/02/04 03:11:06;;;;;;;4.83;2.83;;;4.20;99.90;;;;;;5102832;28;20198;-65
2023/02/04 03:13:35;;;;;;;2.10;1.00;;;4.20;99.90;;;;;;5089994;28;20370;-65
2023/02/04 03:16:04;;;;;;;0.70;0.70;;;4.10;99.90;;;;;;5098914;28;20569;-66
2023/02/04 03:18:32;;;;;;;4.33;0.70;;;3.90;99.90;;;;;;5063898;28;20227;-65
2023/02/04 03:20:59;;;;;;;0.40;0.30;;;3.80;99.90;;;;;;5069024;28;20307;-65
2023/02/04 03:23:27;;;;;;;0.47;0.40;;;3.70;99.90;;;;;;5097651;28;20589;-65
2023/02/04 03:25:56;;;;;;;0.30;0.30;;;3.70;99.90;;;;;;5069967;28;20542;-65
2023/02/04 03:28:23;;;;;;;0.50;0.50;;;3.70;99.90;;;;;;5071516;28;20213;-65
2023/02/04 03:30:54;;;;;;;3.43;1.00;;;3.70;99.90;;;;;;5093132;28;20203;-66
2023/02/04 03:33:22;;;;;;;3.83;1.60;;;3.80;99.90;;;;;;5100251;28;20192;-66
2023/02/04 03:35:50;;;;;;;1.50;1.10;;;3.80;99.90;;;;;;5072339;28;20198;-66
2023/02/04 03:38:18;;;;;;;1.80;1.10;;;3.90;99.90;;;;;;5105132;28;20202;-65
2023/02/04 03:40:45;;;;;;;4.13;1.27;;;3.90;99.90;;;;;;5093139;28;21008;-65
2023/02/04 03:43:14;;;;;;;3.37;1.27;;;3.90;99.90;;;;;;5088287;28;20211;-65
2023/02/04 03:45:41;;;;;;;3.23;1.33;;;3.90;99.90;;;;;;5095091;28;20193;-65
2023/02/04 03:48:10;;;;;;;1.43;0.93;;;3.90;99.90;;;;;;5090214;28;20227;-65
2023/02/04 03:50:37;;;;;;;0.73;0.73;;;3.90;99.90;;;;;;5099375;28;20199;-65
2023/02/04 03:53:04;;;;;;;3.10;0.80;;;3.90;99.90;;;;;;5102315;28;20198;-66
2023/02/04 03:55:31;;;;;;;3.60;1.00;;;3.90;99.90;;;;;;5095580;28;20188;-65
2023/02/04 03:57:59;;;;;;;1.53;0.70;;;4.00;99.90;;;;;;5102810;28;20274;-64
2023/02/04 04:00:26;;;;;;;1.07;0.80;;;4.00;99.90;;;;;;5095668;28;20678;-64
2023/02/04 04:02:53;;;;;;;0.87;0.60;;;3.90;99.90;;;;;;5090001;28;20493;-65
2023/02/04 04:05:22;;;;;;;0.40;0.40;;;3.80;99.90;;;;;;5094587;28;20677;-64
2023/02/04 04:07:49;;;;;;;1.80;0.60;;;3.90;99.90;;;;;;5100626;28;20245;-63
2023/02/04 04:10:16;;;;;;;1.27;0.53;;;3.80;99.90;;;;;;5090845;28;20214;-63
2023/02/04 04:12:43;;;;;;;1.07;0.70;;;3.80;99.90;;;;;;5097064;28;20261;-64
2023/02/04 04:15:11;;;;;;;1.07;0.50;;;3.80;99.90;;;;;;5101386;28;20188;-63
2023/02/04 04:17:38;;;;;;;1.33;0.60;;;3.70;99.90;;;;;;5097359;28;20279;-65
2023/02/04 04:20:06;;;;;;;4.17;0.77;;;3.80;99.90;;;;;;5062704;28;20251;-65
2023/02/04 04:22:35;;;;;;;10.43;0.67;;;3.80;99.90;;;;;;5099692;28;20204;-64
2023/02/04 04:25:02;;;;;;;1.43;0.60;;;3.80;99.90;;;;;;5091769;28;20208;-66
2023/02/04 04:27:29;;;;;;;0.60;0.60;;;3.80;99.90;;;;;;5101884;28;20667;-66
2023/02/04 04:29:57;;;;;;;0.50;0.50;;;3.90;99.90;;;;;;5094185;28;20212;-66
2023/02/04 04:32:24;;;;;;;0.77;0.60;;;3.90;99.90;;;;;;5094429;28;20215;-65
2023/02/04 04:34:51;;;;;;;0.60;0.60;;;3.90;99.90;;;;;;5099164;28;20207;-64
2023/02/04 04:37:22;;;;;;;0.87;0.70;;;3.90;99.90;;;;;;5093647;28;20180;-66
2023/02/04 04:39:50;;;;;;;1.80;0.80;;;3.90;99.90;;;;;;5074520;28;20196;-66
2023/02/04 04:42:18;;;;;;;1.70;0.90;;;4.00;99.90;;;;;;5094259;28;20249;-66
2023/02/04 04:44:45;;;;;;;3.17;1.20;;;4.00;99.90;;;;;;5066496;28;20200;-67
2023/02/04 04:47:12;;;;;;;2.63;1.10;;;4.00;99.90;;;;;;5069897;28;20211;-67
2023/02/04 04:49:39;;;;;;;3.57;0.90;;;4.00;99.90;;;;;;5099901;28;20536;-67
2023/02/04 04:52:06;;;;;;;2.27;0.87;;;4.00;99.90;;;;;;5096771;28;20200;-66
2023/02/04 04:54:33;;;;;;;2.97;0.83;;;3.90;99.90;;;;;;5095864;28;20191;-66
2023/02/04 04:57:02;;;;;;;1.03;0.70;;;3.90;99.90;;;;;;5093082;28;20277;-66
2023/02/04 04:59:29;;;;;;;0.60;0.50;;;3.90;99.90;;;;;;5086013;28;20268;-67
2023/02/04 05:01:56;;;;;;;2.83;0.90;;;3.90;99.90;;;;;;5099171;28;20208;-66
2023/02/04 05:04:23;;;;;;;3.10;1.30;;;3.90;99.90;;;;;;5094737;28;20251;-67
2023/02/04 05:06:51;;;;;;;7.00;0.90;;;3.90;99.90;;;;;;5095494;28;20875;-67
2023/02/04 05:09:18;;;;;;;1.20;0.50;;;3.80;99.90;;;;;;5099794;28;20596;-67
2023/02/04 05:11:46;;;;;;;0.50;0.50;;;3.80;99.90;;;;;;5099024;28;20189;-67
2023/02/04 05:14:15;;;;;;;4.90;0.50;;;3.70;99.90;;;;;;5098445;28;20199;-67
2023/02/04 05:16:42;;;;;;;2.77;0.50;;;3.60;99.90;;;;;;5095420;28;20187;-66
2023/02/04 05:19:09;;;;;;;0.50;0.50;;;3.60;99.90;;;;;;5097673;28;20204;-67
2023/02/04 05:21:36;;;;;;;1.60;0.60;;;3.60;99.90;;;;;;5092370;28;20202;-67
2023/02/04 05:24:05;;;;;;;2.77;0.77;;;3.50;99.90;;;;;;5095725;28;20195;-66
2023/02/04 05:26:32;;;;;;;0.80;0.80;;;3.50;99.90;;;;;;5097408;28;20196;-67
2023/02/04 05:29:00;;;;;;;1.60;0.60;;;3.50;99.90;;;;;;5095356;28;20283;-67
2023/02/04 05:31:30;;;;;;;1.97;0.70;;;3.50;99.90;;;;;;5096845;28;20235;-66
2023/02/04 05:33:57;;;;;;;1.00;0.67;;;3.50;99.90;;;;;;5098563;28;20689;-66
2023/02/04 05:36:24;;;;;;;1.13;0.57;;;3.60;99.90;;;;;;5086592;28;20602;-67
2023/02/04 05:38:51;;;;;;;2.20;0.97;;;3.60;99.90;;;;;;5101545;28;20196;-66
2023/02/04 05:41:18;;;;;;;1.13;1.03;;;3.60;99.90;;;;;;5093359;28;20220;-67
2023/02/04 05:43:46;;;;;;;0.93;0.73;;;3.60;99.90;;;;;;5098980;28;20282;-66
2023/02/04 05:46:13;;;;;;;1.07;0.80;;;3.60;99.90;;;;;;5087769;28;20298;-66
2023/02/04 05:48:41;;;;;;;0.70;0.70;;;3.70;99.90;;;;;;5066295;28;20219;-67
2023/02/04 05:51:08;;;;;;;0.93;0.73;;;3.70;99.90;;;;;;5089905;28;20208;-66
2023/02/04 05:53:36;;;;;;;0.70;0.70;;;3.70;99.90;;;;;;5099102;28;20622;-65
2023/02/04 05:56:03;;;;;;;1.43;0.80;;;3.70;99.90;;;;;;5091179;28;20193;-67
2023/02/04 05:58:32;;;;;;;0.73;0.73;;;3.80;99.90;;;;;;5096104;28;20244;-67
2023/02/04 06:01:00;;;;;;;0.80;0.80;;;3.80;99.90;;;;;;5086814;28;20185;-66
2023/02/04 06:03:28;;;;;;;0.77;0.77;;;3.80;99.90;;;;;;5086722;28;20193;-67
2023/02/04 06:05:57;;;;;;;0.60;0.60;;;3.80;99.90;;;;;;5086627;28;20250;-66
2023/02/04 06:08:24;;;;;;;1.20;0.90;;;3.90;99.90;;;;;;5067876;28;20551;-66
2023/02/04 06:10:51;;;;;;;0.80;0.80;;;3.90;99.90;;;;;;5097809;28;20216;-67
2023/02/04 06:13:19;;;;;;;2.80;1.10;;;4.00;99.90;;;;;;5104675;28;20699;-67
2023/02/04 06:15:46;;;;;;;1.27;0.93;;;4.00;99.90;;;;;;5096417;28;20196;-67
2023/02/04 06:18:13;;;;;;;1.60;1.10;;;4.00;99.90;;;;;;5085619;28;20205;-67
2023/02/04 06:20:41;;;;;;;2.60;1.30;;;4.00;99.90;;;;;;5086433;28;20264;-66
2023/02/04 06:23:09;;;;;;;1.67;0.93;;;4.00;99.90;;;;;;5099479;28;20673;-67
2023/02/04 06:25:37;;;;;;;2.53;1.00;;;4.00;99.90;;;;;;5102033;28;20699;-67
2023/02/04 06:28:05;;;;;;;2.13;1.03;;;4.00;98.50;;;;;;5092323;28;20686;-66
2023/02/04 06:30:32;;;;;;;0.90;0.70;;;4.00;97.00;;;;;;5098002;28;20208;-66
2023/02/04 06:32:59;;;;;;;2.20;0.80;;;3.90;95.30;;;;;;5087884;28;20229;-66
2023/02/04 06:35:26;;;;;;;1.37;1.00;;;3.90;94.90;;;;;;5090747;28;20436;-66
2023/02/04 06:37:53;;;;;;;6.13;1.10;;;3.90;94.20;;;;;;5087029;28;20781;-65
2023/02/04 06:40:22;;;;;;;2.20;1.07;;;3.90;93.50;;;;;;5100581;28;20199;-66
2023/02/04 06:42:49;;;;;;;1.60;0.93;;;3.90;92.80;;;;;;5093695;28;20184;-66
2023/02/04 06:45:16;;;;;;;1.10;0.93;;;3.90;92.40;;;;;;5086028;28;20192;-66
2023/02/04 06:47:44;;;;;;;2.17;0.90;;;3.90;92.30;;;;;;5092060;28;20758;-67
2023/02/04 06:50:11;;;;;;;2.03;1.00;;;3.90;92.40;;;;;;5089720;28;20216;-65
2023/02/04 06:52:38;;;;;;;0.93;0.80;;;3.90;92.60;;;;;;5062467;28;20596;-66
2023/02/04 06:55:06;;;;;;;0.93;0.70;;;3.90;92.90;;;;;;5067644;28;20667;-66
2023/02/04 06:57:34;;;;;;;2.83;0.93;;;4.00;93.10;;;;;;5093626;28;20219;-66
2023/02/04 07:00:02;;;;;;;1.97;0.87;;;4.00;93.30;;;;;;5091918;28;20188;-66
2023/02/04 07:02:29;;;;;;;1.20;0.77;;;4.00;93.80;;;;;;5098706;28;20195;-67
2023/02/04 07:04:56;;;;;;;2.73;1.00;;;4.10;94.40;;;;;;5069826;28;20232;-67
2023/02/04 07:07:23;;;;;;;3.30;1.07;;;4.10;94.90;;;;;;5095816;28;20204;-67
2023/02/04 07:09:50;;;;;;;1.67;0.93;;;4.10;95.40;;;;;;5096893;28;20192;-66
2023/02/04 07:12:18;;;;;;;0.77;0.70;;;4.20;95.30;;;;;;5104492;28;20218;-67
2023/02/04 07:14:46;;;;;;;3.30;0.80;;;4.10;94.50;;;;;;5096005;28;20203;-67
2023/02/04 07:17:13;;;;;;;2.10;0.80;;;4.10;93.80;;;;;;5072697;28;20192;-67
2023/02/04 07:19:40;;;;;;;0.70;0.60;;;4.10;93.00;;;;;;5101047;28;20216;-67
2023/02/04 07:22:08;;;;;;;0.60;0.60;;;4.00;92.10;;;;;;5098150;28;20192;-66
2023/02/04 07:24:35;;;;;;;1.27;0.90;;;4.00;91.50;;;;;;5098862;28;20200;-67
2023/02/04 07:27:02;;;;;;;1.57;0.90;;;4.00;91.20;;;;;;5103165;28;20238;-67
2023/02/04 07:29:29;;;;;;;1.83;0.80;;;4.00;91.40;;;;;;5085258;28;20238;-66
2023/02/04 07:31:58;;;;;;;1.80;1.03;;;4.00;91.40;;;;;;5092461;28;20205;-66
2023/02/04 07:34:25;;;;;;;0.80;0.80;;;4.00;91.20;;;;;;5097725;28;20191;-67
2023/02/04 07:36:52;;;;;;;0.97;0.60;;;4.10;91.00;;;;;;5078864;28;20204;-66
2023/02/04 07:39:19;;;;;;;0.70;0.70;;;4.00;90.70;;;;;;5100158;28;20657;-67
2023/02/04 07:41:46;;;;;;;0.80;0.80;;;4.00;90.80;;;;;;5096154;28;20271;-67
2023/02/04 07:44:20;;;;;;;0.80;0.80;;;4.00;90.90;;;;;;5068533;28;20558;-66
2023/02/04 07:46:48;;;;;;;2.30;0.80;;;4.10;91.10;;;;;;5105670;28;20602;-66
2023/02/04 07:49:16;;;;;;;1.57;0.87;;;4.20;91.30;;;;;;5093798;28;20314;-67
2023/02/04 07:51:43;;;;;;;2.40;1.23;;;4.30;91.50;;;;;;5094010;28;20218;-66
2023/02/04 07:54:11;;;;;;;4.17;1.20;;;4.30;91.50;;;;;;5078648;28;20220;-67
2023/02/04 07:56:38;;;;;;;2.70;1.20;;;4.40;91.60;;;;;;5079287;28;20758;-67
2023/02/04 07:59:05;;;;;;;3.57;1.07;;;4.40;91.70;;;;;;5090844;28;20664;-67
2023/02/04 08:01:32;;;;;;;2.07;1.10;;;4.50;92.10;;;;;;5099087;28;20198;-67
2023/02/04 08:04:00;;;;;;;3.63;1.03;;;4.60;93.30;;;;;;5096985;28;20237;-67
2023/02/04 08:06:28;;;;;;;2.23;0.90;;;4.60;95.40;;;;;;5094126;28;20197;-67
2023/02/04 08:08:55;;;;;;;0.80;0.80;;;4.70;97.20;;;;;;5093851;28;20286;-66
2023/02/04 08:11:23;;;;;;;1.07;1.07;;;4.60;97.50;;;;;;5097260;28;20320;-66
2023/02/04 08:13:50;;;;;;;3.43;1.10;;;4.70;98.10;;;;;;5094514;28;20248;-67
2023/02/04 08:16:17;;;;;;;2.80;1.07;;;4.60;98.30;;;;;;5102718;28;20647;-67
2023/02/04 08:18:44;;;;;;;1.00;1.00;;;4.70;98.60;;;;;;5103176;28;20192;-67
2023/02/04 08:21:11;;;;;;;1.77;1.30;;;4.70;98.60;;;;;;5096375;28;20188;-66
2023/02/04 08:23:40;;;;;;;1.40;1.20;;;4.70;98.50;;;;;;5096672;28;20211;-67
2023/02/04 08:26:09;;;;;;;1.87;1.20;;;4.60;98.30;;;;;;5101695;28;20221;-67
2023/02/04 08:28:36;;;;;;;0.90;0.90;;;4.60;98.30;;;;;;5091133;28;20196;-66
2023/02/04 08:31:04;;;;;;;1.30;1.20;;;4.50;98.30;;;;;;5070780;28;20217;-65
2023/02/04 08:33:31;;;;;;;2.93;1.30;;;4.50;98.30;;;;;;5096762;28;20202;-66
2023/02/04 08:35:58;;;;;;;1.53;1.40;;;4.60;98.40;;;;;;5081604;28;20198;-65
2023/02/04 08:38:25;;;;;;;2.47;1.50;;;4.60;98.40;;;;;;5096459;28;20193;-66
2023/02/04 08:40:56;;;;;;;6.97;1.30;;;4.60;98.50;;;;;;5102358;28;20192;-65
2023/02/04 08:43:23;;;;;;;1.87;1.63;;;4.60;98.70;;;;;;5090312;28;20271;-66
2023/02/04 08:45:50;;;;;;;2.37;1.67;;;4.60;98.90;;;;;;5098978;28;20196;-67
2023/02/04 08:48:18;;;;;;;4.20;1.80;;;4.60;99.30;;;;;;5093999;28;20205;-67
2023/02/04 08:50:45;;;;;;;1.87;1.40;;;4.60;99.50;;;;;;5093377;28;20564;-66
2023/02/04 08:53:12;;;;;;;4.07;1.30;;;4.60;99.70;;;;;;5098654;28;20288;-66
2023/02/04 08:55:39;;;;;;;2.77;1.77;;;4.60;99.60;;;;;;5093039;28;20196;-65
2023/02/04 08:58:08;;;;;;;1.00;1.00;;;4.70;99.60;;;;;;5097172;28;20188;-66
2023/02/04 09:00:35;;;;;;;1.10;1.00;;;4.80;99.60;;;;;;5103792;28;20195;-66
2023/02/04 09:03:02;;;;;;;1.30;1.10;;;5.00;99.20;;;;;;5093820;28;20203;-66
2023/02/04 09:05:30;;;;;;;1.50;0.90;;;5.00;98.90;;;;;;5069367;28;20228;-66
2023/02/04 09:07:57;;;;;;;2.10;0.97;;;5.00;98.90;;;;;;5098196;28;20195;-67
2023/02/04 09:10:25;;;;;;;0.80;0.60;;;5.10;99.00;;;;;;5094144;28;20206;-67
2023/02/04 09:12:54;;;;;;;0.90;0.57;;;5.30;99.00;;;;;;5092974;28;20212;-67
2023/02/04 09:15:24;;;;;;;1.57;0.73;;;5.80;99.90;;;;;;5100974;28;20912;-67
2023/02/04 09:17:52;;;;;;;1.40;0.80;;;5.70;98.80;;;;;;5088773;28;20201;-66
2023/02/04 09:20:20;;;;;;;1.73;0.80;;;5.80;98.60;;;;;;5091999;28;20197;-66
2023/02/04 09:22:49;;;;;;;1.23;0.90;;;5.70;98.50;;;;;;5093732;28;20201;-67
2023/02/04 09:25:16;;;;;;;1.20;1.10;;;5.70;98.50;;;;;;5092789;28;20208;-66
2023/02/04 09:27:43;;;;;;;1.00;0.90;;;5.60;98.50;;;;;;5100250;28;20688;-66
2023/02/04 09:30:12;;;;;;;3.50;1.17;;;5.50;98.60;;;;;;5093388;28;20222;-66
2023/02/04 09:32:40;;;;;;;1.20;1.10;;;5.40;98.70;;;;;;5091574;28;20208;-66
2023/02/04 09:35:11;;;;;;;3.33;1.20;;;5.30;98.80;;;;;;5098171;28;20192;-67
2023/02/04 09:37:38;;;;;;;1.70;1.40;;;6.30;99.30;;;;;;5096030;28;20207;-66
2023/02/04 09:40:06;;;;;;;2.03;1.30;;;5.30;98.80;;;;;;5094156;28;20192;-67
2023/02/04 09:42:33;;;;;;;1.37;1.00;;;5.20;98.80;;;;;;5095291;28;20195;-67
2023/02/04 09:45:02;;;;;;;1.53;0.83;;;5.10;99.10;;;;;;5067358;28;20330;-66
2023/02/04 09:47:29;;;;;;;2.00;0.90;;;5.00;99.50;;;;;;5090089;28;20191;-66
2023/02/04 09:49:58;;;;;;;1.13;0.67;;;5.10;99.90;;;;;;5098710;28;20682;-66
2023/02/04 09:52:27;;;;;;;1.13;0.77;;;5.20;99.90;;;;;;5091818;28;20682;-66
2023/02/04 09:54:54;;;;;;;1.03;0.97;;;5.20;99.90;;;;;;5091034;28;20193;-66
2023/02/04 09:57:21;;;;;;;0.77;0.70;;;5.10;99.90;;;;;;5093483;28;20266;-67
2023/02/04 09:59:51;;;;;;;1.17;0.70;;;5.00;99.90;;;;;;5090169;28;20204;-66
2023/02/04 10:02:23;;;;;;;2.20;0.90;;;4.80;99.90;;;;;;5094406;28;20279;-66
2023/02/04 10:04:52;;;;;;;2.33;1.00;;;4.70;99.90;;;;;;5098317;28;20308;-65
2023/02/04 10:07:24;;;;;;;3.07;1.03;;;4.50;99.90;;;;;;5062161;28;20197;-66
2023/02/04 10:09:53;;;;;;;3.07;0.70;;;4.50;99.90;;;;;;5096546;28;20183;-67
2023/02/04 10:12:20;;;;;;;1.53;0.97;;;4.50;99.90;;;;;;5096360;28;20216;-66
2023/02/04 10:14:48;;;;;;;1.20;1.10;;;4.50;99.90;;;;;;5061882;28;20220;-66
2023/02/04 10:17:20;;;;;;;4.17;1.30;;;4.40;99.90;;;;;;5096348;28;20209;-65
2023/02/04 10:19:48;;;;;;;2.60;1.30;;;4.40;99.90;;;;;;5098481;28;20670;-66
2023/02/04 10:22:20;;;;;;;1.60;0.77;;;4.30;99.90;;;;;;5082526;28;20196;-66
2023/02/04 10:24:49;;;;;;;3.33;1.10;;;4.30;99.90;;;;;;5096892;28;20307;-66
2023/02/04 10:27:16;;;;;;;4.00;1.40;;;4.20;99.90;;;;;;5096832;28;20199;-66
2023/02/04 10:29:55;;;;;;;1.17;0.80;;;4.20;99.90;;;;;;5091110;28;20226;-66
2023/02/04 10:32:31;;;;;;;2.27;1.20;;;4.10;99.90;;;;;;5065546;28;20208;-66
2023/02/04 10:34:59;;;;;;;2.20;1.10;;;4.00;99.90;;;;;;5103008;28;20194;-67
2023/02/04 10:37:28;;;;;;;1.97;0.80;;;4.00;99.90;;;;;;5073369;28;20273;-67
2023/02/04 10:39:57;;;;;;;0.83;0.83;;;3.90;99.90;;;;;;5107485;28;20277;-66
2023/02/04 10:42:26;;;;;;;0.83;0.83;;;3.90;99.90;;;;;;5110515;28;20258;-65
2023/02/04 10:44:53;;;;;;;1.67;0.90;;;3.90;99.90;;;;;;5074874;28;20216;-66
2023/02/04 10:47:22;;;;;;;2.63;0.90;;;3.90;99.90;;;;;;5070850;28;20243;-66
2023/02/04 10:49:55;;;;;;;3.27;0.90;;;3.90;99.90;;;;;;5112447;28;20203;-66
2023/02/04 10:52:26;;;;;;;1.20;0.70;;;4.00;99.90;;;;;;5093120;28;20207;-65
2023/02/04 10:54:54;;;;;;;1.10;1.00;;;4.10;99.90;;;;;;5107272;28;20189;-66
2023/02/04 10:57:26;;;;;;;3.00;1.60;;;4.30;99.90;;;;;;5107648;28;20193;-67
2023/02/04 10:59:57;;;;;;;2.03;1.80;;;4.30;99.90;;;;;;5097407;28;20191;-67
2023/02/04 11:02:40;;;;;;;3.07;1.57;;;4.40;99.90;;;;;;5108318;28;20190;-66
2023/02/04 11:05:13;;;;;;;1.67;1.20;;;4.40;99.90;;;;;;5096376;28;20226;-67
2023/02/04 11:07:41;;;;;;;3.60;1.00;;;4.30;99.90;;;;;;5109501;28;20677;-67
2023/02/04 11:10:15;;;;;;;1.00;0.70;;;4.10;99.90;;;;;;5102490;28;20199;-67
2023/02/04 11:12:46;;;;;;;2.20;1.30;;;4.00;99.90;;;;;;5075221;28;20745;-68
2023/02/04 11:15:45;;;;;;;3.00;1.37;;;3.80;99.90;;;;;;5098027;28;20265;-66
2023/02/04 11:18:26;;;;;;;5.03;1.47;;;3.80;99.90;;;;;;5098052;28;20283;-67
2023/02/04 11:20:55;;;;;;;1.73;1.27;;;3.70;99.90;;;;;;5091390;28;20532;-67
2023/02/04 11:23:36;;;;;;;11.87;2.43;;;3.70;99.90;;;;;;5105405;28;20190;-67
2023/02/04 11:26:12;;;;;;;5.97;2.10;;;3.80;99.90;;;;;;5104537;28;20187;-67
2023/02/04 11:28:56;;;;;;;4.73;1.40;;;4.30;99.90;;;;;;5102557;28;20272;-65
2023/02/04 11:31:31;;;;;;;1.80;1.10;;;3.90;99.90;;;;;;5108276;28;20183;-66
2023/02/04 11:34:11;;;;;;;1.00;1.00;;;3.90;99.90;;;;;;5102373;28;20187;-67
2023/02/04 11:36:55;;;;;;;1.97;0.93;;;4.00;99.90;;;;;;5109223;28;20191;-66
2023/02/04 11:39:23;;;;;;;2.53;0.90;;;3.90;99.90;;;;;;5108953;28;20663;-67
2023/02/04 11:41:50;;;;;;;1.37;0.80;;;3.90;99.90;;;;;;5097538;28;20184;-67
2023/02/04 11:44:20;;;;;;;2.10;1.13;;;4.00;99.90;;;;;;5105399;28;20202;-67
2023/02/04 11:46:54;;;;;;;3.33;1.00;;;4.20;99.90;;;;;;5096344;28;20676;-66
2023/02/04 11:49:23;;;;;;;2.10;0.87;;;4.20;99.90;;;;;;5096272;28;20223;-67
2023/02/04 11:51:51;;;;;;;4.07;1.10;;;4.20;99.90;;;;;;5096062;28;20211;-67
2023/02/04 11:54:20;;;;;;;1.57;1.10;;;4.20;99.90;;;;;;5102959;28;20196;-66
2023/02/04 11:56:47;;;;;;;1.97;1.10;;;4.20;99.90;;;;;;5087359;28;20191;-66
2023/02/04 11:59:16;;;;;;;2.30;1.17;;;4.20;99.90;;;;;;5094027;28;20850;-66
2023/02/04 12:01:45;;;;;;;2.07;1.00;;;4.20;99.90;;;;;;5070000;28;20208;-67
2023/02/04 12:04:24;;;;;;;5.33;1.00;;;4.30;99.90;;;;;;5095728;28;20223;-66
2023/02/04 12:06:59;;;;;;;1.87;1.23;;;4.40;99.90;;;;;;5102971;28;20204;-66
2023/02/04 12:09:28;;;;;;;3.17;1.20;;;4.40;99.90;;;;;;5104665;28;20663;-65
2023/02/04 12:11:57;;;;;;;3.30;1.10;;;4.40;99.90;;;;;;5096950;28;20280;-67
2023/02/04 12:14:31;;;;;;;2.13;1.00;;;4.40;99.90;;;;;;5104904;28;20196;-67
2023/02/04 12:17:00;;;;;;;1.33;1.00;;;4.40;99.90;;;;;;5089315;28;20265;-67
2023/02/04 12:19:27;;;;;;;2.97;0.97;;;4.20;99.90;;;;;;5097872;28;20199;-66
2023/02/04 12:21:57;;;;;;;0.83;0.80;;;4.20;99.90;;;;;;5099465;28;20192;-66
2023/02/04 12:24:25;;;;;;;1.10;1.00;;;4.00;99.90;;;;;;5094840;28;20190;-67
2023/02/04 12:26:52;;;;;;;1.43;1.00;;;4.00;99.90;;;;;;5103158;28;20192;-66
2023/02/04 12:29:21;;;;;;;4.00;0.90;;;3.90;99.90;;;;;;5068547;28;20593;-66
2023/02/04 12:31:48;;;;;;;0.87;0.87;;;3.90;99.90;;;;;;5091768;28;20189;-66
2023/02/04 12:34:17;;;;;;;2.23;0.83;;;3.90;99.90;;;;;;5105660;28;20187;-66
2023/02/04 12:36:44;;;;;;;2.73;1.10;;;3.90;99.90;;;;;;5102260;28;20195;-66
2023/02/04 12:39:11;;;;;;;3.43;1.00;;;4.00;99.90;;;;;;5090396;28;20189;-66
2023/02/04 12:41:38;;;;;;;2.40;1.10;;;4.10;99.90;;;;;;5069107;28;20196;-66
2023/02/04 12:44:06;;;;;;;1.57;1.10;;;4.20;99.90;;;;;;5102715;28;20558;-66
2023/02/04 12:46:36;;;;;;;8.03;1.83;;;4.30;99.90;;;;;;5095166;28;20200;-66
2023/02/04 12:49:03;;;;;;;4.97;1.83;;;4.40;99.40;;;;;;5100342;28;20192;-66
2023/02/04 12:51:32;;;;;;;2.23;1.60;;;4.60;99.20;;;;;;5105677;28;20338;-66
2023/02/04 12:53:59;;;;;;;2.03;1.20;;;4.70;98.60;;;;;;5093849;28;20648;-66
2023/02/04 12:56:26;;;;;;;6.33;1.30;;;4.70;98.20;;;;;;5069863;28;20196;-66
2023/02/04 12:58:53;;;;;;;1.90;1.27;;;4.80;97.80;;;;;;5095173;28;20931;-66
2023/02/04 13:01:21;;;;;;;4.27;2.20;;;4.90;97.30;;;;;;5096789;28;20200;-67
2023/02/04 13:03:48;;;;;;;8.60;3.50;;;5.10;97.00;;;;;;5099418;28;20216;-66